Tombstone, AZ

10:28 AM MST on March 04, 2015 (GMT -0700)
Nogales International | Change Station
CLOSE
Current Station
Airport
Location: Nogales,
Elevation: 3944 ft
Nearby Weather Stations

Elev 3944 ft 31.42 °N, 110.85 °W | Updated 34 minutes ago

Mostly Cloudy
Mostly Cloudy
52 °F
Feels Like 52 °F
N
7
Wind Variable Wind from SSW

Today
High -- | Low -- °F
--% Chance of Precip.
Yesterday
High -- | Low -- °F
Precip. -- in
6:44 AM 6:20 PM
Waxing Gibbous, 99% visible
Pressure 29.91 in
Visibility 10.0 miles
Clouds Clear
Dew Point 34 °F
Humidity 50%
Rainfall 0.00 in
Snow Depth Not available.
UV 5 out of 12
Pollen 7.10 out of 12
Air Quality Not available.
Flu Activity Not available.
METAR KOLS 041654Z AUTO 21006KT 10SM CLR 11/01 A3000 RMK AO2 SLP129 T01110011

More Conditions Fewer Conditions

Pressure 29.91 in
Visibility 10.0 miles
Clouds Clear
Dew Point 34 °F
Humidity 50%
Rainfall 0.00 in
Snow Depth Not available.
UV 5 out of 12
Pollen 7.10 out of 12
Air Quality Not available.
Flu Activity Not available.
METAR KOLS 041654Z AUTO 21006KT 10SM CLR 11/01 A3000 RMK AO2 SLP129 T01110011

More Conditions Fewer Conditions

Nowcast | as of 10:11 am MST on March 4, 2015

Expect showers south of a line from Willcox to Benson to Sells through early afternoon. An isolated thunderstorm is also possible. Movement will be southeast at 15 mph.

×

10-Day Weather Forecast

Almanac

Astronomy

Mar. 04, 2015 Rise Set
Actual Time
Civil Twilight
Nautical Twilight
Astronomical Twilight
Moon
Length of Visible Light
Length of Day
Tomorrow will be .
, % of the Moon is Illuminated

Today's Extremes

State Highs State Lows

Community

WunderPhotos

Upload Photos

1,802,516 photos uploaded!

WunderBlogs® & News

Nearby

Air Quality

  Air Quality AQ Index Pollutant
Not available.

Snow Depth

Station Depth Elevation

Earthquake Activity

City Distance Mag. Time & Date
Minimum magnitude displayed is 2.5.

Coastal Water Temperatures

Place Temperature

Nearby Weather Stations